Time;durP1;ratioP1;P1;durP2;ratioP2;P2;SDS_P1;SDS_P2;PMS_P1;PMS_P2;Temp;Humidity;BMP_temperature;BMP_pressure;BME280_temperature;BME280_humidity;BME280_pressure;Samples;Min_cycle;Max_cycle;Signal;HPM_P1;HPM_P2
2022/11/04 00:02:41;;;;;;;;;;;;;;;;;;10335608;28;19947;-77
2022/11/04 00:13:00;;;;;;;;;;;;;;;;;;10341433;28;20345;-79
2022/11/04 00:18:01;;;;;;;;;;;;;;;;;;10346102;28;19928;-81
2022/11/04 00:33:39;;;;;;;;;;;;;;;;;;10345833;28;20420;-79
2022/11/04 00:38:39;;;;;;;;;;;;;;;;;;10359184;28;19925;-85
2022/11/04 00:43:40;;;;;;;;;;;;;;;;;;10390530;28;19957;-83
2022/11/04 00:48:40;;;;;;;;;;;;;;;;;;10343040;28;19918;-80
2022/11/04 00:53:40;;;;;;;;;;;;;;;;;;10346501;28;19917;-78
2022/11/04 00:58:40;;;;;;;;;;;;;;;;;;10341506;28;20358;-78
2022/11/04 01:03:41;;;;;;;;;;;;;;;;;;10344418;28;19940;-78
2022/11/04 01:08:41;;;;;;;;;;;;;;;;;;10353412;28;20275;-76
2022/11/04 01:13:41;;;;;;;;;;;;;;;;;;10338294;28;20304;-78
2022/11/04 01:18:41;;;;;;;;;;;;;;;;;;10350005;28;20388;-76
2022/11/04 01:23:41;;;;;;;;;;;;;;;;;;10338046;28;19949;-78
2022/11/04 01:28:42;;;;;;;;;;;;;;;;;;10341082;28;19918;-77
2022/11/04 01:33:42;;;;;;;;;;;;;;;;;;10348303;28;19921;-77
2022/11/04 01:38:42;;;;;;;;;;;;;;;;;;10355898;28;19929;-80
2022/11/04 01:43:43;;;;;;;;;;;;;;;;;;10354618;28;20028;-78
2022/11/04 01:48:43;;;;;;;;;;;;;;;;;;10359382;28;20301;-79
2022/11/04 01:53:43;;;;;;;;;;;;;;;;;;10358716;28;19921;-83
2022/11/04 01:58:44;;;;;;;;;;;;;;;;;;10354154;28;20294;-80
2022/11/04 02:03:44;;;;;;;;;;;;;;;;;;10350904;28;19932;-78
2022/11/04 02:08:44;;;;;;;;;;;;;;;;;;10355066;28;20298;-77
2022/11/04 02:13:44;;;;;;;;;;;;;;;;;;10357681;28;19922;-78
2022/11/04 02:18:45;;;;;;;;;;;;;;;;;;10348832;28;19917;-79
2022/11/04 02:23:45;;;;;;;;;;;;;;;;;;10352597;28;20329;-76
2022/11/04 02:28:45;;;;;;;;;;;;;;;;;;10342628;28;20016;-78
2022/11/04 02:33:46;;;;;;;;;;;;;;;;;;10355628;28;20004;-77
2022/11/04 02:38:47;;;;;;;;;;;;;;;;;;10349314;28;20341;-78
2022/11/04 02:43:47;;;;;;;;;;;;;;;;;;10353388;28;19926;-76
2022/11/04 02:48:47;;;;;;;;;;;;;;;;;;10348206;28;19918;-78
2022/11/04 02:53:48;;;;;;;;;;;;;;;;;;10348824;28;19922;-79
2022/11/04 02:58:51;;;;;;;;;;;;;;;;;;10350648;28;20078;-81
2022/11/04 03:03:53;;;;;;;;;;;;;;;;;;10344283;28;19925;-80
2022/11/04 03:08:53;;;;;;;;;;;;;;;;;;10353529;28;19929;-81
2022/11/04 03:13:53;;;;;;;;;;;;;;;;;;10338087;28;20429;-80
2022/11/04 03:18:54;;;;;;;;;;;;;;;;;;10345134;28;20407;-76
2022/11/04 03:23:54;;;;;;;;;;;;;;;;;;10331799;28;19972;-76
2022/11/04 03:28:54;;;;;;;;;;;;;;;;;;10340555;28;19921;-77
2022/11/04 03:33:54;;;;;;;;;;;;;;;;;;10342817;28;19921;-76
2022/11/04 03:38:55;;;;;;;;;;;;;;;;;;10338100;28;20395;-77
2022/11/04 03:43:55;;;;;;;;;;;;;;;;;;10351427;28;19928;-78
2022/11/04 03:48:55;;;;;;;;;;;;;;;;;;10352970;28;19945;-79
2022/11/04 03:53:56;;;;;;;;;;;;;;;;;;10339513;28;19917;-76
2022/11/04 03:58:57;;;;;;;;;;;;;;;;;;10373693;28;20020;-78
2022/11/04 04:03:57;;;;;;;;;;;;;;;;;;10390933;28;19926;-79
2022/11/04 04:08:57;;;;;;;;;;;;;;;;;;10352333;28;19926;-79
2022/11/04 04:14:00;;;;;;;;;;;;;;;;;;10345166;28;19965;-77
2022/11/04 04:19:01;;;;;;;;;;;;;;;;;;10346735;28;20453;-78
2022/11/04 04:29:21;;;;;;;;;;;;;;;;;;10393854;28;20334;-77
2022/11/04 04:34:21;;;;;;;;;;;;;;;;;;10400941;28;20006;-78
2022/11/04 04:50:00;;;;;;;;;;;;;;;;;;10337183;28;20390;-77
2022/11/04 04:55:00;;;;;;;;;;;;;;;;;;10336894;28;20016;-77
2022/11/04 05:00:00;;;;;;;;;;;;;;;;;;10352429;28;20007;-78
2022/11/04 05:05:00;;;;;;;;;;;;;;;;;;10336192;28;19921;-77
2022/11/04 05:10:01;;;;;;;;;;;;;;;;;;10349842;28;20029;-77
2022/11/04 05:15:01;;;;;;;;;;;;;;;;;;10344080;28;19922;-80
2022/11/04 05:20:01;;;;;;;;;;;;;;;;;;10342614;28;19979;-80
2022/11/04 05:25:01;;;;;;;;;;;;;;;;;;10345030;28;20329;-82
2022/11/04 05:30:02;;;;;;;;;;;;;;;;;;10343971;28;19925;-81
2022/11/04 05:35:06;;;;;;;;;;;;;;;;;;10351810;28;19921;-80
2022/11/04 05:40:06;;;;;;;;;;;;;;;;;;10344271;28;19937;-82
2022/11/04 05:45:06;;;;;;;;;;;;;;;;;;10347552;28;19933;-76
2022/11/04 05:50:06;;;;;;;;;;;;;;;;;;10343889;28;19951;-77
2022/11/04 05:55:10;;;;;;;;;;;;;;;;;;10340864;28;19922;-78
2022/11/04 06:00:10;;;;;;;;;;;;;;;;;;10340064;28;19925;-77
2022/11/04 06:05:12;;;;;;;;;;;;;;;;;;10346017;28;19921;-78
2022/11/04 06:10:12;;;;;;;;;;;;;;;;;;10366495;28;20096;-79
2022/11/04 06:15:18;;;;;;;;;;;;;;;;;;10373959;28;19921;-79
2022/11/04 06:20:18;;;;;;;;;;;;;;;;;;10364113;28;20372;-81
2022/11/04 06:25:18;;;;;;;;;;;;;;;;;;10344059;28;19917;-76
2022/11/04 06:30:19;;;;;;;;;;;;;;;;;;10361348;28;19953;-82
2022/11/04 06:35:20;;;;;;;;;;;;;;;;;;10375433;28;19929;-78
2022/11/04 06:40:21;;;;;;;;;;;;;;;;;;10375367;28;19933;-79
2022/11/04 06:45:21;;;;;;;;;;;;;;;;;;10358738;28;20204;-80
2022/11/04 06:50:21;;;;;;;;;;;;;;;;;;10352438;28;19975;-76
2022/11/04 06:55:21;;;;;;;;;;;;;;;;;;10350048;28;19954;-77
2022/11/04 07:00:22;;;;;;;;;;;;;;;;;;10360174;28;19980;-78
2022/11/04 07:05:23;;;;;;;;;;;;;;;;;;10343878;28;19932;-78
2022/11/04 07:10:24;;;;;;;;;;;;;;;;;;10356677;28;19945;-77
2022/11/04 07:15:25;;;;;;;;;;;;;;;;;;10358865;28;19925;-79
2022/11/04 07:20:25;;;;;;;;;;;;;;;;;;10374027;28;19949;-81
2022/11/04 07:25:27;;;;;;;;;;;;;;;;;;10391596;28;19944;-80
2022/11/04 07:30:27;;;;;;;;;;;;;;;;;;10390686;28;19929;-78
2022/11/04 07:35:27;;;;;;;;;;;;;;;;;;10368815;28;20025;-78
2022/11/04 07:40:28;;;;;;;;;;;;;;;;;;10386259;28;19930;-77
2022/11/04 07:45:29;;;;;;;;;;;;;;;;;;10362977;28;19929;-79
2022/11/04 07:50:31;;;;;;;;;;;;;;;;;;10371179;28;20115;-80
2022/11/04 07:55:31;;;;;;;;;;;;;;;;;;10374452;28;19922;-77
2022/11/04 08:00:32;;;;;;;;;;;;;;;;;;10357349;28;19933;-78
2022/11/04 08:05:32;;;;;;;;;;;;;;;;;;10386259;23;19933;-80
2022/11/04 08:10:32;;;;;;;;;;;;;;;;;;10388418;28;19976;-80
2022/11/04 08:15:32;;;;;;;;;;;;;;;;;;10385633;28;19948;-79
2022/11/04 08:20:35;;;;;;;;;;;;;;;;;;10386481;28;19936;-79
2022/11/04 08:25:35;;;;;;;;;;;;;;;;;;10369901;28;20929;-78
2022/11/04 08:30:37;;;;;;;;;;;;;;;;;;10377053;28;19926;-79
2022/11/04 08:35:40;;;;;;;;;;;;;;;;;;10385642;28;19921;-79
2022/11/04 08:40:40;;;;;;;;;;;;;;;;;;10389933;28;19924;-79
2022/11/04 08:45:42;;;;;;;;;;;;;;;;;;10365780;28;19928;-79
2022/11/04 08:50:45;;;;;;;;;;;;;;;;;;10382986;28;19926;-81
2022/11/04 08:55:46;;;;;;;;;;;;;;;;;;10387877;28;19941;-80
2022/11/04 09:00:46;;;;;;;;;;;;;;;;;;10371396;28;19921;-79
2022/11/04 09:05:48;;;;;;;;;;;;;;;;;;10379691;28;19987;-80
2022/11/04 09:10:48;;;;;;;;;;;;;;;;;;10412732;28;20395;-79
2022/11/04 09:15:48;;;;;;;;;;;;;;;;;;10406565;28;19976;-78
2022/11/04 09:20:50;;;;;;;;;;;;;;;;;;10401898;28;19925;-78
2022/11/04 09:25:50;;;;;;;;;;;;;;;;;;10376357;28;19921;-76
2022/11/04 09:30:50;;;;;;;;;;;;;;;;;;10363737;28;19992;-77
2022/11/04 09:35:50;;;;;;;;;;;;;;;;;;10373036;28;20396;-76
2022/11/04 09:40:52;;;;;;;;;;;;;;;;;;10375702;28;20288;-77
2022/11/04 09:45:53;;;;;;;;;;;;;;;;;;10378641;28;20039;-78
2022/11/04 09:50:53;;;;;;;;;;;;;;;;;;10370104;28;19964;-78
2022/11/04 09:55:53;;;;;;;;;;;;;;;;;;10367477;28;19940;-77
2022/11/04 10:00:55;;;;;;;;;;;;;;;;;;10393570;28;21115;-78
2022/11/04 10:05:56;;;;;;;;;;;;;;;;;;10394138;28;19967;-78
2022/11/04 10:10:56;;;;;;;;;;;;;;;;;;10400757;28;20027;-79
2022/11/04 10:15:56;;;;;;;;;;;;;;;;;;10424734;28;19921;-79
2022/11/04 10:20:57;;;;;;;;;;;;;;;;;;10440520;28;19932;-80
2022/11/04 10:25:57;;;;;;;;;;;;;;;;;;10394415;28;20769;-80
2022/11/04 10:30:57;;;;;;;;;;;;;;;;;;10393163;28;19929;-79
2022/11/04 10:35:57;;;;;;;;;;;;;;;;;;10381453;28;19921;-78
2022/11/04 10:40:59;;;;;;;;;;;;;;;;;;10394088;28;20600;-78
2022/11/04 10:45:59;;;;;;;;;;;;;;;;;;10371000;28;19917;-79
2022/11/04 10:51:00;;;;;;;;;;;;;;;;;;10411038;28;20008;-78
2022/11/04 10:56:01;;;;;;;;;;;;;;;;;;10376536;28;19953;-78
2022/11/04 11:01:01;;;;;;;;;;;;;;;;;;10376573;28;20041;-78
2022/11/04 11:06:03;;;;;;;;;;;;;;;;;;10383494;28;19925;-77
2022/11/04 11:11:03;;;;;;;;;;;;;;;;;;10384391;28;19936;-81
2022/11/04 11:16:03;;;;;;;;;;;;;;;;;;10372586;28;19924;-79
2022/11/04 11:21:04;;;;;;;;;;;;;;;;;;10380097;28;19929;-79
2022/11/04 11:26:06;;;;;;;;;;;;;;;;;;10387997;28;20142;-80
2022/11/04 11:31:10;;;;;;;;;;;;;;;;;;10417944;28;19918;-80
2022/11/04 11:36:12;;;;;;;;;;;;;;;;;;10434763;28;19921;-81
2022/11/04 11:41:12;;;;;;;;;;;;;;;;;;10416770;28;20366;-77
2022/11/04 11:46:12;;;;;;;;;;;;;;;;;;10414170;28;20372;-77
2022/11/04 11:51:13;;;;;;;;;;;;;;;;;;10391796;28;19953;-78
2022/11/04 11:56:13;;;;;;;;;;;;;;;;;;10379899;28;20378;-78
2022/11/04 12:01:16;;;;;;;;;;;;;;;;;;10380599;28;19926;-81
2022/11/04 12:06:16;;;;;;;;;;;;;;;;;;10379273;28;19925;-77
2022/11/04 12:11:17;;;;;;;;;;;;;;;;;;10370325;28;19921;-79
2022/11/04 12:16:17;;;;;;;;;;;;;;;;;;10364516;28;19917;-78
2022/11/04 12:21:20;;;;;;;;;;;;;;;;;;10374228;28;20296;-80
2022/11/04 12:26:23;;;;;;;;;;;;;;;;;;10363880;28;19956;-81
2022/11/04 12:31:23;;;;;;;;;;;;;;;;;;10387482;28;19921;-78
2022/11/04 12:36:24;;;;;;;;;;;;;;;;;;10365718;28;19948;-77
2022/11/04 12:41:24;;;;;;;;;;;;;;;;;;10390296;28;20322;-79
2022/11/04 12:46:24;;;;;;;;;;;;;;;;;;10377846;28;20512;-77
2022/11/04 12:51:24;;;;;;;;;;;;;;;;;;10381222;28;20377;-79
2022/11/04 12:56:25;;;;;;;;;;;;;;;;;;10376765;28;19925;-78
2022/11/04 13:01:25;;;;;;;;;;;;;;;;;;10380512;28;20345;-80
2022/11/04 13:06:26;;;;;;;;;;;;;;;;;;10411624;28;19929;-78
2022/11/04 13:11:26;;;;;;;;;;;;;;;;;;10441357;28;19921;-78
2022/11/04 13:16:26;;;;;;;;;;;;;;;;;;10420627;28;19920;-80
2022/11/04 13:21:27;;;;;;;;;;;;;;;;;;10381926;28;20435;-78
2022/11/04 13:26:29;;;;;;;;;;;;;;;;;;10368214;28;20396;-79
2022/11/04 13:31:30;;;;;;;;;;;;;;;;;;10389421;28;19928;-79
2022/11/04 13:36:30;;;;;;;;;;;;;;;;;;10401107;28;19929;-82
2022/11/04 13:41:31;;;;;;;;;;;;;;;;;;10395001;28;20377;-80
2022/11/04 13:46:33;;;;;;;;;;;;;;;;;;10397126;28;19921;-79
2022/11/04 13:51:34;;;;;;;;;;;;;;;;;;10352275;28;20640;-79
2022/11/04 13:56:35;;;;;;;;;;;;;;;;;;10393619;28;20004;-79
2022/11/04 14:01:36;;;;;;;;;;;;;;;;;;10378355;28;19925;-79
2022/11/04 14:06:40;;;;;;;;;;;;;;;;;;10386029;28;19925;-79
2022/11/04 14:11:40;;;;;;;;;;;;;;;;;;10378427;28;20925;-80
2022/11/04 14:16:41;;;;;;;;;;;;;;;;;;10368563;28;19921;-79
2022/11/04 14:21:41;;;;;;;;;;;;;;;;;;10384236;28;20372;-80
2022/11/04 14:26:43;;;;;;;;;;;;;;;;;;10389674;28;19934;-80
2022/11/04 14:31:43;;;;;;;;;;;;;;;;;;10416329;28;19926;-78
2022/11/04 14:36:44;;;;;;;;;;;;;;;;;;10443838;28;19914;-79
2022/11/04 14:41:45;;;;;;;;;;;;;;;;;;10432481;28;19937;-79
2022/11/04 14:46:46;;;;;;;;;;;;;;;;;;10418890;28;19902;-79
2022/11/04 14:51:46;;;;;;;;;;;;;;;;;;10378727;28;20369;-79
2022/11/04 14:56:46;;;;;;;;;;;;;;;;;;10375548;28;19918;-79
2022/11/04 15:01:48;;;;;;;;;;;;;;;;;;10391227;28;19924;-77
2022/11/04 15:06:48;;;;;;;;;;;;;;;;;;10386843;28;19929;-78
2022/11/04 15:17:07;;;;;;;;;;;;;;;;;;10376777;28;20316;-78
2022/11/04 15:22:07;;;;;;;;;;;;;;;;;;10398696;28;19948;-79
2022/11/04 15:27:09;;;;;;;;;;;;;;;;;;10394973;28;19917;-77
2022/11/04 15:32:09;;;;;;;;;;;;;;;;;;10408550;28;20367;-78
2022/11/04 15:37:10;;;;;;;;;;;;;;;;;;10392953;28;20020;-78
2022/11/04 15:47:30;;;;;;;;;;;;;;;;;;10393435;28;19972;-78
2022/11/04 15:52:30;;;;;;;;;;;;;;;;;;10379616;28;19971;-77
2022/11/04 15:57:31;;;;;;;;;;;;;;;;;;10398866;28;19927;-76
2022/11/04 16:02:31;;;;;;;;;;;;;;;;;;10410044;28;19995;-80
2022/11/04 16:07:31;;;;;;;;;;;;;;;;;;10394585;28;19929;-79
2022/11/04 16:12:31;;;;;;;;;;;;;;;;;;10390266;28;19927;-79
2022/11/04 16:17:32;;;;;;;;;;;;;;;;;;10410483;28;20393;-81
2022/11/04 16:22:32;;;;;;;;;;;;;;;;;;10416465;28;19929;-82
2022/11/04 16:27:32;;;;;;;;;;;;;;;;;;10423479;28;19921;-82
2022/11/04 16:32:32;;;;;;;;;;;;;;;;;;10378324;28;20003;-73
2022/11/04 16:37:33;;;;;;;;;;;;;;;;;;10442133;28;19939;-83
2022/11/04 16:42:33;;;;;;;;;;;;;;;;;;10416885;28;19976;-80
2022/11/04 16:47:33;;;;;;;;;;;;;;;;;;10402422;28;19928;-78
2022/11/04 16:52:33;;;;;;;;;;;;;;;;;;10398670;28;19921;-78
2022/11/04 16:57:34;;;;;;;;;;;;;;;;;;10437215;28;19905;-79
2022/11/04 17:02:39;;;;;;;;;;;;;;;;;;10435406;28;19940;-79
2022/11/04 17:07:40;;;;;;;;;;;;;;;;;;10442369;28;19960;-78
2022/11/04 17:12:41;;;;;;;;;;;;;;;;;;10424900;28;20392;-81
2022/11/04 17:17:42;;;;;;;;;;;;;;;;;;10427771;28;20074;-78
2022/11/04 17:22:42;;;;;;;;;;;;;;;;;;10374609;28;19982;-80
2022/11/04 17:27:43;;;;;;;;;;;;;;;;;;10365843;28;19921;-79
2022/11/04 17:32:43;;;;;;;;;;;;;;;;;;10391090;28;19921;-80
2022/11/04 17:37:43;;;;;;;;;;;;;;;;;;10397351;28;20015;-79
2022/11/04 17:48:03;;;;;;;;;;;;;;;;;;10388528;28;19925;-79
2022/11/04 17:53:03;;;;;;;;;;;;;;;;;;10356601;28;19943;-79
2022/11/04 17:58:03;;;;;;;;;;;;;;;;;;10375052;28;20672;-78
2022/11/04 18:03:05;;;;;;;;;;;;;;;;;;10374061;28;20039;-79
2022/11/04 18:08:05;;;;;;;;;;;;;;;;;;10365145;28;19925;-78
2022/11/04 18:13:06;;;;;;;;;;;;;;;;;;10381044;28;19956;-79
2022/11/04 18:18:06;;;;;;;;;;;;;;;;;;10369391;28;20034;-78
2022/11/04 18:23:07;;;;;;;;;;;;;;;;;;10400671;28;19929;-79
2022/11/04 18:28:07;;;;;;;;;;;;;;;;;;10386951;28;19929;-77
2022/11/04 18:33:07;;;;;;;;;;;;;;;;;;10400106;28;19945;-78
2022/11/04 18:38:08;;;;;;;;;;;;;;;;;;10376708;28;20364;-78
2022/11/04 18:43:08;;;;;;;;;;;;;;;;;;10407046;28;19936;-77
2022/11/04 18:48:10;;;;;;;;;;;;;;;;;;10398329;28;19918;-78
2022/11/04 18:53:12;;;;;;;;;;;;;;;;;;10385236;28;19971;-76
2022/11/04 18:58:12;;;;;;;;;;;;;;;;;;10392440;28;20028;-79
2022/11/04 19:03:12;;;;;;;;;;;;;;;;;;10385600;28;20428;-78
2022/11/04 19:08:13;;;;;;;;;;;;;;;;;;10395576;28;19931;-78
2022/11/04 19:13:19;;;;;;;;;;;;;;;;;;10407925;28;19925;-77
2022/11/04 19:18:19;;;;;;;;;;;;;;;;;;10417830;28;19922;-77
2022/11/04 19:23:20;;;;;;;;;;;;;;;;;;10401785;28;19932;-77
2022/11/04 19:28:21;;;;;;;;;;;;;;;;;;10381583;28;19928;-79
2022/11/04 19:33:21;;;;;;;;;;;;;;;;;;10384506;28;19952;-79
2022/11/04 19:38:23;;;;;;;;;;;;;;;;;;10369027;28;19921;-81
2022/11/04 19:43:23;;;;;;;;;;;;;;;;;;10379785;28;19929;-79
2022/11/04 19:48:23;;;;;;;;;;;;;;;;;;10371662;28;20131;-80
2022/11/04 19:53:24;;;;;;;;;;;;;;;;;;10366803;28;20588;-78
2022/11/04 19:58:24;;;;;;;;;;;;;;;;;;10381433;28;19928;-76
2022/11/04 20:03:26;;;;;;;;;;;;;;;;;;10379271;28;19964;-78
2022/11/04 20:08:26;;;;;;;;;;;;;;;;;;10408183;28;19929;-79
2022/11/04 20:18:45;;;;;;;;;;;;;;;;;;10377559;28;19921;-77
2022/11/04 20:23:45;;;;;;;;;;;;;;;;;;10379825;28;20447;-79
2022/11/04 20:28:46;;;;;;;;;;;;;;;;;;10388598;28;19921;-79
2022/11/04 20:33:47;;;;;;;;;;;;;;;;;;10386738;28;20538;-79
2022/11/04 20:38:47;;;;;;;;;;;;;;;;;;10379156;28;20064;-78
2022/11/04 20:43:47;;;;;;;;;;;;;;;;;;10378950;28;19937;-83
2022/11/04 20:48:48;;;;;;;;;;;;;;;;;;10392492;28;19983;-80
2022/11/04 20:53:54;;;;;;;;;;;;;;;;;;10394604;28;19905;-79
2022/11/04 20:58:54;;;;;;;;;;;;;;;;;;10420277;28;20275;-79
2022/11/04 21:03:55;;;;;;;;;;;;;;;;;;10374211;28;19929;-79
2022/11/04 21:08:55;;;;;;;;;;;;;;;;;;10411690;28;19952;-78
2022/11/04 21:13:55;;;;;;;;;;;;;;;;;;10389800;28;19925;-81
2022/11/04 21:18:56;;;;;;;;;;;;;;;;;;10391662;28;19960;-80
2022/11/04 21:23:57;;;;;;;;;;;;;;;;;;10407209;28;19926;-82
2022/11/04 21:28:57;;;;;;;;;;;;;;;;;;10379681;28;20293;-80
2022/11/04 21:33:58;;;;;;;;;;;;;;;;;;10394098;28;20008;-81
2022/11/04 21:38:58;;;;;;;;;;;;;;;;;;10439174;28;19905;-79
2022/11/04 21:43:58;;;;;;;;;;;;;;;;;;10426247;28;19967;-80
2022/11/04 21:48:59;;;;;;;;;;;;;;;;;;10386912;28;19921;-80
2022/11/04 21:53:59;;;;;;;;;;;;;;;;;;10385863;28;20344;-79
2022/11/04 21:59:00;;;;;;;;;;;;;;;;;;10396276;28;19971;-80
2022/11/04 22:04:01;;;;;;;;;;;;;;;;;;10379338;28;19933;-80
2022/11/04 22:09:01;;;;;;;;;;;;;;;;;;10371457;28;19932;-83
2022/11/04 22:14:03;;;;;;;;;;;;;;;;;;10403515;28;19917;-79
2022/11/04 22:19:03;;;;;;;;;;;;;;;;;;10389120;28;19921;-80
2022/11/04 22:24:04;;;;;;;;;;;;;;;;;;10422867;28;19929;-81
2022/11/04 22:29:04;;;;;;;;;;;;;;;;;;10393286;28;19928;-82
2022/11/04 22:34:04;;;;;;;;;;;;;;;;;;10417561;28;19956;-79
2022/11/04 22:39:06;;;;;;;;;;;;;;;;;;10409181;28;19922;-80
2022/11/04 22:44:06;;;;;;;;;;;;;;;;;;10383570;28;19978;-84
2022/11/04 22:49:06;;;;;;;;;;;;;;;;;;10393986;28;19932;-81
2022/11/04 22:54:07;;;;;;;;;;;;;;;;;;10373245;28;19929;-82
2022/11/04 22:59:07;;;;;;;;;;;;;;;;;;10392102;28;20522;-81
2022/11/04 23:04:10;;;;;;;;;;;;;;;;;;10377717;28;20520;-81
2022/11/04 23:09:10;;;;;;;;;;;;;;;;;;10394331;28;19925;-80
2022/11/04 23:19:30;;;;;;;;;;;;;;;;;;10405948;28;20013;-80
2022/11/04 23:40:27;;;;;;;;;;;;;;;;;;10388023;28;19922;-79
